Řízení letového provozu České republiky  
Aktualizace dat:  01.10.2014 20:08:15 UTC English version
   METEO Zobrazení stránky:  01.10.2014 20:15:52 UTC  
vysvětlivky
METAR COR EDDB 011950Z 15003KT 9999 R25R/P2000N R25L/0600VP2000U BCFG FEW033 BKN058 14/13 Q1027 TEMPO 1500 BCFG=
METAR EDDC 011950Z VRB02KT 8000 FEW030 15/13 Q1027 NOSIG=
METAR EDDE 011950Z 19003KT 9999 FEW038 15/12 Q1028 NOSIG=
METAR EDDF 011950Z 05002KT 9999 BCFG NSC 16/15 Q1027 NOSIG=
METAR EDDM 011950Z 30002KT 9999 SCT016 BKN110 14/13 Q1028 BECMG 4000 BCFG=
METAR EDDN 011950Z VRB01KT CAVOK 15/15 Q1027 NOSIG=
METAR EDDP 011950Z 17002KT 9999 SCT048 BKN074 16/13 Q1027 NOSIG=
METAR EDDT 011950Z 00000KT 9999 MIFG NSC 14/13 Q1027 TEMPO 1500 BCFG=
METAR EDQM 011950Z AUTO 35001KT 3500NDV BR FEW030/// BKN088/// 13/11 Q1029=
METAR EPBY 012000Z 11002KT CAVOK 12/09 Q1028 =
METAR EPGD 012000Z 13004KT CAVOK 10/07 Q1028 =
METAR EPKK 012000Z 02005KT 2000 -RA BR BKN001 15/15 Q1026 =
METAR EPKT 012000Z 04005KT 2500 BR SCT001 BKN003 15/14 Q1026 =
METAR EPLL 012000Z 08005KT 9999 OVC017 12/11 Q1027 =
METAR EPPO 012000Z 10004KT 4000 BR BKN004 13/13 Q1028 =
METAR EPRZ 012000Z 08007KT 9999 OVC030 13/11 Q1027 =
METAR EPWA 012000Z 08006KT CAVOK 13/06 Q1028 NOSIG=
METAR EPWR 012000Z 21001KT 7000 SCT043 14/12 Q1027 =
METAR LHBP 012000Z 03009KT 340V040 9999 -RA SCT038 BKN092 17/13 Q1025 NOSIG=
METAR LHSM 011545Z 35009KT 8000 SCT026 BKN083 18/15 Q1024 NOSIG=
METAR LKCV 012000Z 32002KT 9999 SCT029 OVC034 15/15 Q1027 NOSIG=
METAR LKKB 012000Z VRB02KT 9999 FEW030 14/12 Q1027 NOSIG =
METAR LKKU NIL
METAR LKKV 012000Z 09002KT 5000 1200NW BR BCFG SCT001 10/10 Q1028 RMK REG QNH 1023=
METAR LKLN 012000Z AUTO 33001KT 6000 NSC 14/// Q1028=
METAR LKMT 012000Z 01005KT 8000 FEW010 OVC023 15/14 Q1026 NOSIG RMK REG QNH 1023=
METAR LKNA 012000Z 00000KT 2500 BR SCT017 BKN047 OVC070 14/13 Q1026 NOSIG=
METAR LKPD 012000Z 00000KT 9999 SCT040 BKN100 14/14 Q1026 NOSIG =
METAR LKPR 012000Z VRB02KT 6000 NSC 13/12 Q1027 NOSIG RMK REG QNH 1023=
METAR LKTB 012000Z VRB01KT 9000 -RA FEW035 OVC041 15/14 Q1026 NOSIG RMK REG QNH 1023=
METAR LKVO NIL
METAR LOWI 011950Z VRB01KT 9999 FEW006 SCT010 BKN070 14/13 Q1028 TEMPO BKN008=
METAR LOWL 011950Z 28005KT 3500 BR BKN002 BKN040 15/15 Q1026 TEMPO 2000=
METAR LOWS 011950Z 22003KT 9999 FEW005 SCT017 FEW025CB BKN035 15/15 Q1027 TEMPO SHRA=
METAR LOWW 011950Z VRB01KT 9000 -RA FEW070 BKN090 15/13 Q1026 NOSIG=
METAR LZIB 012000Z 00000KT 9999 FEW007 OVC076 16/14 Q1026=
METAR LZKZ 012000Z 35004KT 8000 -RA BCFG FEW004 OVC055 15/14 Q1025=
METAR LZPP 012000Z 12002KT 2000 RA BR OVC025 15/14 Q1026=
METAR LZSL 012000Z 00000KT 8000 -RA FEW003 SCT005 BKN017 14/14 Q1026=
METAR LZTT 012000Z 28005KT 9999 -RA BKN033 OVC080 12/11 Q1026=
METAR LZZI 012000Z 09001KT 2500 -RA BR SCT006 BKN018 OVC026 15/14 Q1026=